Time;durP1;ratioP1;P1;durP2;ratioP2;P2;SDS_P1;SDS_P2;PMS_P1;PMS_P2;Temp;Humidity;BMP_temperature;BMP_pressure;BME280_temperature;BME280_humidity;BME280_pressure;Samples;Min_cycle;Max_cycle;Signal;HPM_P1;HPM_P2
2022/10/08 00:00:51;;;;;;;8.27;1.50;;;13.60;99.90;;;;;;4998696;28;20042;-62
2022/10/08 00:03:18;;;;;;;7.90;1.70;;;13.60;99.90;;;;;;4998083;28;20104;-61
2022/10/08 00:05:58;;;;;;;7.60;2.92;;;13.60;99.90;;;;;;4995308;28;20596;-62
2022/10/08 00:08:24;;;;;;;7.63;2.70;;;13.60;99.90;;;;;;4992594;28;20056;-59
2022/10/08 00:10:55;;;;;;;10.48;2.80;;;13.60;99.90;;;;;;5000703;28;20037;-61
2022/10/08 00:13:23;;;;;;;6.68;2.03;;;13.60;99.90;;;;;;5001616;28;20081;-60
2022/10/08 00:15:49;;;;;;;8.55;2.15;;;13.60;99.90;;;;;;5007074;28;20147;-59
2022/10/08 00:18:15;;;;;;;5.78;1.92;;;13.60;99.90;;;;;;4985977;28;20029;-58
2022/10/08 00:20:41;;;;;;;4.68;1.65;;;13.60;99.90;;;;;;5001438;28;22035;-59
2022/10/08 00:23:07;;;;;;;5.72;1.50;;;13.50;99.90;;;;;;5003814;28;20042;-59
2022/10/08 00:25:41;;;;;;;8.75;2.10;;;13.50;99.90;;;;;;4998038;28;20522;-60
2022/10/08 00:28:08;;;;;;;8.35;1.63;;;13.50;99.90;;;;;;4979983;28;20613;-59
2022/10/08 00:30:39;;;;;;;6.63;1.45;;;13.50;99.90;;;;;;4997878;28;20041;-60
2022/10/08 00:33:06;;;;;;;6.45;1.80;;;13.40;99.90;;;;;;4999273;28;20045;-60
2022/10/08 00:35:39;;;;;;;5.53;1.40;;;13.40;99.90;;;;;;4979279;28;20509;-59
2022/10/08 00:38:06;;;;;;;4.60;1.65;;;13.40;99.90;;;;;;5002690;28;20121;-59
2022/10/08 00:40:42;;;;;;;4.97;1.40;;;13.40;99.90;;;;;;5001087;28;20047;-59
2022/10/08 00:43:14;;;;;;;6.53;1.58;;;13.40;99.90;;;;;;4999613;28;20053;-59
2022/10/08 00:45:45;;;;;;;8.55;1.77;;;13.40;99.90;;;;;;4983512;28;20555;-61
2022/10/08 00:48:24;;;;;;;6.80;1.90;;;13.30;99.90;;;;;;4998680;28;20070;-57
2022/10/08 00:50:50;;;;;;;4.55;1.20;;;13.40;99.90;;;;;;4984666;28;20046;-59
2022/10/08 00:53:16;;;;;;;6.00;1.60;;;13.30;99.90;;;;;;5002072;28;20073;-59
2022/10/08 00:55:43;;;;;;;7.55;1.90;;;13.30;99.90;;;;;;4999341;28;20034;-58
2022/10/08 00:58:21;;;;;;;4.40;1.60;;;13.30;99.90;;;;;;4972351;28;20129;-60
2022/10/08 01:00:48;;;;;;;4.25;1.30;;;13.30;99.90;;;;;;5003957;28;20073;-60
2022/10/08 01:03:14;;;;;;;6.53;1.40;;;13.30;99.90;;;;;;4996897;28;20426;-60
2022/10/08 01:06:08;;;;;;;5.15;1.65;;;13.30;99.90;;;;;;4998441;28;20563;-60
2022/10/08 01:08:37;;;;;;;;;;;13.30;99.90;;;;;;4990523;28;20046;-58
2022/10/08 01:11:43;;;;;;;5.43;1.63;;;13.30;99.90;;;;;;4984304;28;19925;-59
2022/10/08 01:14:40;;;;;;;5.18;1.70;;;13.20;99.90;;;;;;4995675;28;20041;-60
2022/10/08 01:17:25;;;;;;;6.85;1.90;;;13.20;99.90;;;;;;5001750;28;20512;-61
2022/10/08 01:20:19;;;;;;;4.97;1.40;;;13.20;99.90;;;;;;4995081;28;20462;-61
2022/10/08 01:23:04;;;;;;;;;;;13.10;99.90;;;;;;4987032;28;20054;-61
2022/10/08 01:25:36;;;;;;;6.35;1.40;;;13.10;99.90;;;;;;4979201;28;19925;-60
2022/10/08 01:28:26;;;;;;;5.43;1.65;;;13.10;99.90;;;;;;4994289;28;20123;-60
2022/10/08 01:31:01;;;;;;;9.40;1.67;;;13.10;99.90;;;;;;5001233;28;20117;-61
2022/10/08 01:33:35;;;;;;;9.02;2.33;;;13.00;99.90;;;;;;5009257;28;20052;-61
2022/10/08 01:36:04;;;;;;;7.10;2.03;;;13.00;99.90;;;;;;4991115;28;20077;-61
2022/10/08 01:38:32;;;;;;;5.38;1.75;;;13.00;99.90;;;;;;5008715;28;20103;-59
2022/10/08 01:41:03;;;;;;;7.38;1.83;;;13.00;99.90;;;;;;5008950;28;20034;-61
2022/10/08 01:43:32;;;;;;;6.18;1.70;;;13.00;99.90;;;;;;5005472;28;20030;-60
2022/10/08 01:46:17;;;;;;;8.18;1.63;;;13.00;99.90;;;;;;5003702;28;20034;-61
2022/10/08 01:48:43;;;;;;;;;;;13.00;99.90;;;;;;4996236;28;20117;-60
2022/10/08 01:51:19;;;;;;;10.23;1.70;;;12.90;99.90;;;;;;5005457;28;20007;-61
2022/10/08 01:53:49;;;;;;;8.75;1.48;;;12.90;99.90;;;;;;5006465;28;20226;-61
2022/10/08 01:56:21;;;;;;;6.28;1.80;;;12.90;99.90;;;;;;4992607;28;20556;-60
2022/10/08 01:59:21;;;;;;;10.10;2.58;;;12.90;99.90;;;;;;4999198;28;20057;-60
2022/10/08 02:01:53;;;;;;;5.80;2.15;;;12.90;99.90;;;;;;5007159;28;20505;-61
2022/10/08 02:04:36;;;;;;;7.22;1.67;;;12.90;99.90;;;;;;4998735;28;20062;-60
2022/10/08 02:07:06;;;;;;;11.45;2.05;;;12.80;99.90;;;;;;5009076;28;20045;-61
2022/10/08 02:09:44;;;;;;;8.48;1.73;;;12.80;99.90;;;;;;5006836;28;20037;-61
2022/10/08 02:12:11;;;;;;;9.68;1.70;;;12.80;99.90;;;;;;5001451;28;20034;-61
2022/10/08 02:14:42;;;;;;;7.82;1.70;;;12.80;99.90;;;;;;5006357;28;20425;-61
2022/10/08 02:17:27;;;;;;;9.30;2.72;;;12.80;99.90;;;;;;5008743;28;20425;-61
2022/10/08 02:20:03;;;;;;;12.20;2.80;;;12.70;99.90;;;;;;4992067;28;20048;-60
2022/10/08 02:22:38;;;;;;;9.70;2.13;;;12.70;99.90;;;;;;4986608;28;20034;-59
2022/10/08 02:25:11;;;;;;;11.68;2.05;;;12.70;99.90;;;;;;4995590;28;20451;-60
2022/10/08 02:28:00;;;;;;;8.30;2.28;;;12.70;99.90;;;;;;4989482;28;20306;-61
2022/10/08 02:30:35;;;;;;;11.05;4.07;;;12.70;99.90;;;;;;5004456;28;20493;-61
2022/10/08 02:33:09;;;;;;;12.63;4.32;;;12.60;99.90;;;;;;5003650;28;20489;-61
2022/10/08 02:35:52;;;;;;;11.65;2.85;;;12.60;99.90;;;;;;4986547;28;20046;-61
2022/10/08 02:38:22;;;;;;;8.63;2.28;;;12.60;99.90;;;;;;5001757;28;20038;-61
2022/10/08 02:40:51;;;;;;;11.65;2.92;;;12.60;99.90;;;;;;5001533;28;20378;-60
2022/10/08 02:43:24;;;;;;;11.15;1.80;;;12.50;99.90;;;;;;4985776;28;20124;-60
2022/10/08 02:45:58;;;;;;;8.27;1.92;;;12.50;99.90;;;;;;5000473;28;20041;-61
2022/10/08 02:48:30;;;;;;;10.55;3.13;;;12.50;99.90;;;;;;5006437;28;20049;-60
2022/10/08 02:51:12;;;;;;;9.68;2.25;;;12.50;99.90;;;;;;4982125;28;20045;-60
2022/10/08 02:53:39;;;;;;;12.00;3.08;;;12.50;99.90;;;;;;4998559;28;20138;-61
2022/10/08 02:56:19;;;;;;;15.27;3.60;;;12.50;99.90;;;;;;5003394;28;20041;-61
2022/10/08 02:58:46;;;;;;;11.80;3.80;;;12.50;99.90;;;;;;4998591;28;20629;-60
2022/10/08 03:01:27;;;;;;;12.63;3.17;;;12.50;99.90;;;;;;5000719;28;20606;-61
2022/10/08 03:04:00;;;;;;;12.35;2.70;;;12.50;99.90;;;;;;5003879;28;20436;-61
2022/10/08 03:06:28;;;;;;;8.75;2.45;;;12.50;99.90;;;;;;5003368;28;20056;-61
2022/10/08 03:08:57;;;;;;;10.65;2.40;;;12.50;99.90;;;;;;4965701;28;20042;-61
2022/10/08 03:11:24;;;;;;;16.13;2.38;;;12.50;99.90;;;;;;4998058;28;20050;-61
2022/10/08 03:13:50;;;;;;;10.50;2.15;;;12.50;99.90;;;;;;4981263;28;20400;-59
2022/10/08 03:16:21;;;;;;;11.68;2.85;;;12.50;99.90;;;;;;4989087;28;20404;-61
2022/10/08 03:18:49;;;;;;;12.50;3.45;;;12.50;99.90;;;;;;4985175;28;20045;-60
2022/10/08 03:21:15;;;;;;;10.60;3.65;;;12.40;99.90;;;;;;4999259;28;20421;-61
2022/10/08 03:23:41;;;;;;;10.50;3.45;;;12.40;99.90;;;;;;4997007;28;20034;-60
2022/10/08 03:26:07;;;;;;;14.23;3.90;;;12.40;99.90;;;;;;4981200;28;20523;-59
2022/10/08 03:28:32;;;;;;;13.20;3.35;;;12.40;99.90;;;;;;4970916;28;20049;-61
2022/10/08 03:31:03;;;;;;;16.17;3.10;;;12.40;99.90;;;;;;4974040;28;20045;-61
2022/10/08 03:33:30;;;;;;;8.93;2.67;;;12.40;99.90;;;;;;5006625;28;20056;-61
2022/10/08 03:35:57;;;;;;;10.25;2.40;;;12.40;99.90;;;;;;4995723;28;20049;-61
2022/10/08 03:38:23;;;;;;;11.73;2.85;;;12.40;99.90;;;;;;4998217;28;20052;-61
2022/10/08 03:40:57;;;;;;;13.18;2.53;;;12.40;99.90;;;;;;5005205;28;20033;-61
2022/10/08 03:43:23;;;;;;;14.75;2.75;;;12.40;99.90;;;;;;5004372;28;20069;-61
2022/10/08 03:45:53;;;;;;;14.38;3.85;;;12.30;99.90;;;;;;5005430;28;20038;-61
2022/10/08 03:48:21;;;;;;;16.80;2.50;;;12.30;99.90;;;;;;4975107;28;20137;-61
2022/10/08 03:50:59;;;;;;;8.90;2.70;;;12.30;99.90;;;;;;5005496;28;20273;-60
2022/10/08 03:53:27;;;;;;;12.88;4.45;;;12.30;99.90;;;;;;5001622;28;20045;-59
2022/10/08 03:55:53;;;;;;;17.42;6.05;;;12.20;99.90;;;;;;4998804;28;20100;-61
2022/10/08 03:58:20;;;;;;;11.48;4.47;;;12.20;99.90;;;;;;4981796;28;20467;-61
2022/10/08 04:01:04;;;;;;;15.25;4.93;;;12.20;99.90;;;;;;5000933;28;20034;-61
2022/10/08 04:03:30;;;;;;;;;;;12.10;99.90;;;;;;4995464;28;20107;-60
2022/10/08 04:05:57;;;;;;;13.70;3.13;;;12.10;99.90;;;;;;4999987;28;20395;-61
2022/10/08 04:08:24;;;;;;;11.00;2.70;;;12.00;99.90;;;;;;4983686;28;20508;-61
2022/10/08 04:10:50;;;;;;;12.73;2.67;;;12.00;99.90;;;;;;4998509;28;20461;-61
2022/10/08 04:13:16;;;;;;;8.55;2.65;;;11.90;99.90;;;;;;4994810;28;20454;-61
2022/10/08 04:15:43;;;;;;;8.88;2.95;;;12.00;99.90;;;;;;4997435;28;20129;-61
2022/10/08 04:18:11;;;;;;;13.52;4.90;;;11.90;99.90;;;;;;4997685;28;20050;-59
2022/10/08 04:20:38;;;;;;;13.20;3.13;;;11.90;99.90;;;;;;5001059;28;20052;-60
2022/10/08 04:23:05;;;;;;;11.88;2.20;;;11.80;99.90;;;;;;5000672;28;20122;-61
2022/10/08 04:25:31;;;;;;;14.68;2.80;;;11.80;99.90;;;;;;5000842;28;20048;-59
2022/10/08 04:27:57;;;;;;;12.38;2.58;;;11.80;99.90;;;;;;4996380;28;20037;-61
2022/10/08 04:30:23;;;;;;;9.80;2.35;;;11.70;99.90;;;;;;4996442;28;20588;-60
2022/10/08 04:32:49;;;;;;;9.13;2.83;;;11.80;99.90;;;;;;5000537;28;20046;-60
2022/10/08 04:35:15;;;;;;;13.70;2.60;;;11.70;99.90;;;;;;5001964;28;20093;-61
2022/10/08 04:37:41;;;;;;;15.95;2.70;;;11.70;99.90;;;;;;4980793;28;20084;-60
2022/10/08 04:40:08;;;;;;;10.77;2.40;;;11.70;99.90;;;;;;4971122;28;20088;-61
2022/10/08 04:42:33;;;;;;;12.10;2.38;;;11.60;99.90;;;;;;4999661;28;20818;-61
2022/10/08 04:44:59;;;;;;;10.65;2.25;;;11.60;99.90;;;;;;4985098;28;20041;-61
2022/10/08 04:47:25;;;;;;;10.20;2.90;;;11.60;99.90;;;;;;4986416;28;20066;-59
2022/10/08 04:49:51;;;;;;;12.55;2.72;;;11.60;99.90;;;;;;5002990;28;20030;-61
2022/10/08 04:52:19;;;;;;;10.48;2.08;;;11.60;99.90;;;;;;5006928;28;20030;-61
2022/10/08 04:54:45;;;;;;;9.40;2.10;;;11.60;99.90;;;;;;4988394;28;20108;-61
2022/10/08 04:57:11;;;;;;;12.07;2.53;;;11.60;99.90;;;;;;4986623;28;20438;-61
2022/10/08 04:59:37;;;;;;;13.60;2.17;;;11.50;99.90;;;;;;5005514;28;20034;-61
2022/10/08 05:02:03;;;;;;;16.15;2.42;;;11.50;99.90;;;;;;5008218;28;20030;-61
2022/10/08 05:04:28;;;;;;;10.23;2.08;;;11.20;99.90;;;;;;4991537;28;20509;-61
2022/10/08 05:06:54;;;;;;;9.85;2.00;;;11.50;99.90;;;;;;5008159;28;20124;-61
2022/10/08 05:09:20;;;;;;;12.63;2.10;;;11.40;99.90;;;;;;4987726;28;20423;-61
2022/10/08 05:11:46;;;;;;;25.77;3.28;;;11.50;99.90;;;;;;5003677;23;20232;-64
2022/10/08 05:14:12;;;;;;;12.82;2.83;;;11.40;99.90;;;;;;4983099;28;20696;-61
2022/10/08 05:16:37;;;;;;;9.20;2.38;;;11.40;99.90;;;;;;4985481;28;20460;-62
2022/10/08 05:19:03;;;;;;;10.40;2.13;;;11.40;99.90;;;;;;4990580;28;20106;-62
2022/10/08 05:21:31;;;;;;;10.93;2.38;;;11.40;99.90;;;;;;5000360;28;20137;-63
2022/10/08 05:24:03;;;;;;;18.17;2.40;;;11.40;99.90;;;;;;4997590;28;20136;-62
2022/10/08 05:26:33;;;;;;;13.45;3.10;;;11.30;99.90;;;;;;4966996;28;20046;-63
2022/10/08 05:29:00;;;;;;;9.05;2.40;;;11.30;99.90;;;;;;4984826;28;20473;-63
2022/10/08 05:31:28;;;;;;;9.25;3.08;;;11.30;99.90;;;;;;4997202;28;20052;-65
2022/10/08 05:33:54;;;;;;;11.85;2.33;;;11.30;99.90;;;;;;5005135;28;20045;-63
2022/10/08 05:36:23;;;;;;;12.50;2.30;;;11.30;99.90;;;;;;4999427;28;20124;-65
2022/10/08 05:38:49;;;;;;;10.43;2.28;;;11.20;99.90;;;;;;4979311;28;20077;-65
2022/10/08 05:41:22;;;;;;;15.32;2.63;;;11.20;99.90;;;;;;4979898;28;20128;-62
2022/10/08 05:43:48;;;;;;;10.40;2.30;;;11.20;99.90;;;;;;4998314;28;20473;-65
2022/10/08 05:46:15;;;;;;;15.18;2.40;;;11.20;99.90;;;;;;4980735;28;20135;-64
2022/10/08 05:48:42;;;;;;;17.80;2.78;;;11.20;99.90;;;;;;4977488;28;20042;-65
2022/10/08 05:51:10;;;;;;;11.27;2.25;;;11.20;99.90;;;;;;4982294;28;20067;-63
2022/10/08 05:53:38;;;;;;;9.23;2.13;;;11.10;99.90;;;;;;5000687;28;20187;-58
2022/10/08 05:56:07;;;;;;;8.60;2.20;;;11.10;99.90;;;;;;4983145;28;20038;-62
2022/10/08 05:58:35;;;;;;;11.82;1.98;;;11.10;99.90;;;;;;4985175;28;20046;-63
2022/10/08 06:01:22;;;;;;;12.15;2.25;;;11.00;99.90;;;;;;4978470;28;20046;-62
2022/10/08 06:03:49;;;;;;;13.15;2.35;;;11.00;99.90;;;;;;4997481;28;20393;-65
2022/10/08 06:06:15;;;;;;;11.20;2.42;;;11.00;99.90;;;;;;4997630;28;20042;-65
2022/10/08 06:08:41;;;;;;;9.77;2.08;;;11.10;99.90;;;;;;4997729;28;20054;-65
2022/10/08 06:11:07;;;;;;;10.73;2.10;;;11.10;99.90;;;;;;4994053;28;20038;-62
2022/10/08 06:13:33;;;;;;;16.70;2.63;;;11.10;99.90;;;;;;4996234;28;20137;-66
2022/10/08 06:16:00;;;;;;;16.75;2.78;;;11.10;99.90;;;;;;4966500;28;20041;-62
2022/10/08 06:18:29;;;;;;;16.52;3.10;;;11.10;99.90;;;;;;4981520;28;20046;-62
2022/10/08 06:20:54;;;;;;;12.15;2.22;;;11.20;99.90;;;;;;5003722;28;20045;-63
2022/10/08 06:23:21;;;;;;;10.90;2.08;;;11.20;99.90;;;;;;4983118;28;20037;-64
2022/10/08 06:25:47;;;;;;;11.32;2.50;;;11.20;99.90;;;;;;4981913;28;20049;-61
2022/10/08 06:28:14;;;;;;;8.07;2.20;;;11.20;99.90;;;;;;4986141;28;20034;-65
2022/10/08 06:30:41;;;;;;;9.70;1.90;;;11.30;99.90;;;;;;4997804;28;20038;-61
2022/10/08 06:33:08;;;;;;;15.32;2.70;;;11.30;99.90;;;;;;4998833;28;20046;-60
2022/10/08 06:35:34;;;;;;;11.20;1.90;;;11.30;99.90;;;;;;5013684;28;20049;-60
2022/10/08 06:38:01;;;;;;;8.63;1.98;;;11.30;99.90;;;;;;4987046;28;20042;-62
2022/10/08 06:40:29;;;;;;;9.25;2.00;;;11.30;99.90;;;;;;5003138;28;20030;-61
2022/10/08 06:42:55;;;;;;;7.20;1.45;;;11.30;99.90;;;;;;5010350;28;20131;-62
2022/10/08 06:45:21;;;;;;;7.43;1.85;;;11.30;99.90;;;;;;5007349;28;20042;-62
2022/10/08 06:47:46;;;;;;;8.20;1.70;;;11.40;99.90;;;;;;4979698;28;20138;-66
2022/10/08 06:50:12;;;;;;;8.98;1.30;;;11.30;99.90;;;;;;5011305;28;20037;-63
2022/10/08 06:52:38;;;;;;;8.77;1.50;;;11.30;99.90;;;;;;4978205;28;20045;-65
2022/10/08 06:55:04;;;;;;;8.15;1.42;;;11.40;99.90;;;;;;4998619;28;20535;-62
2022/10/08 06:57:29;;;;;;;7.15;1.60;;;11.40;99.90;;;;;;5002887;28;20073;-59
2022/10/08 06:59:57;;;;;;;4.65;1.13;;;11.50;99.90;;;;;;4984921;28;20038;-62
2022/10/08 07:02:23;;;;;;;6.95;1.38;;;11.50;99.90;;;;;;4986576;28;20042;-61
2022/10/08 07:04:49;;;;;;;5.20;1.38;;;11.50;99.90;;;;;;5000636;28;20488;-62
2022/10/08 07:07:15;;;;;;;7.22;1.75;;;11.50;99.90;;;;;;5003695;28;20045;-63
2022/10/08 07:09:40;;;;;;;6.53;1.08;;;11.50;99.90;;;;;;4986089;28;20037;-62
2022/10/08 07:12:06;;;;;;;6.88;1.45;;;11.60;99.90;;;;;;5004618;28;20061;-61
2022/10/08 07:14:32;;;;;;;7.47;1.25;;;11.60;99.90;;;;;;4994437;28;20100;-60
2022/10/08 07:16:57;;;;;;;7.70;1.52;;;11.70;99.90;;;;;;5000994;28;20205;-63
2022/10/08 07:19:23;;;;;;;5.90;1.58;;;11.90;99.90;;;;;;4993079;28;20050;-63
2022/10/08 07:21:49;;;;;;;7.32;1.40;;;11.90;99.90;;;;;;5010414;28;20096;-62
2022/10/08 07:24:15;;;;;;;9.77;1.58;;;12.00;99.90;;;;;;4993820;28;20124;-61
2022/10/08 07:26:40;;;;;;;7.05;1.48;;;12.10;99.90;;;;;;4994202;28;20048;-62
2022/10/08 07:29:11;;;;;;;8.73;2.35;;;12.20;99.90;;;;;;5011669;28;20038;-64
2022/10/08 07:31:38;;;;;;;5.72;1.23;;;12.30;99.90;;;;;;4999857;28;20069;-63
2022/10/08 07:34:07;;;;;;;9.85;1.58;;;12.40;99.90;;;;;;5005790;28;20029;-61
2022/10/08 07:36:32;;;;;;;10.48;2.10;;;12.50;99.90;;;;;;5016804;28;20064;-61
2022/10/08 07:39:05;;;;;;;8.43;1.88;;;12.60;99.90;;;;;;5015647;28;20038;-62
2022/10/08 07:41:31;;;;;;;8.77;1.65;;;12.70;99.90;;;;;;4997892;28;20481;-64
2022/10/08 07:43:59;;;;;;;9.18;1.83;;;12.80;99.90;;;;;;4970869;28;20046;-65
2022/10/08 07:46:26;;;;;;;11.57;2.25;;;13.00;99.90;;;;;;4999083;28;20134;-66
2022/10/08 07:48:55;;;;;;;8.38;1.95;;;13.10;99.90;;;;;;4994208;28;20512;-64
2022/10/08 07:51:21;;;;;;;10.77;1.38;;;13.00;99.90;;;;;;4993917;28;20048;-64
2022/10/08 07:53:47;;;;;;;8.90;2.03;;;13.00;99.90;;;;;;4991545;28;20053;-62
2022/10/08 07:56:15;;;;;;;11.82;2.15;;;13.10;99.90;;;;;;4995414;28;20091;-63
2022/10/08 07:58:41;;;;;;;8.23;1.70;;;13.10;99.90;;;;;;5013823;28;20045;-63
2022/10/08 08:01:10;;;;;;;10.63;1.80;;;13.10;99.90;;;;;;4989822;28;20045;-63
2022/10/08 08:03:36;;;;;;;12.48;1.80;;;13.30;99.90;;;;;;4992882;28;20129;-63
2022/10/08 08:06:11;;;;;;;11.38;1.70;;;13.40;99.90;;;;;;5006983;28;20053;-61
2022/10/08 08:08:38;;;;;;;12.55;2.10;;;13.50;99.90;;;;;;4995275;28;20056;-62
2022/10/08 08:11:06;;;;;;;15.00;2.20;;;13.60;99.90;;;;;;5007693;28;20038;-62
2022/10/08 08:13:34;;;;;;;8.65;1.50;;;13.70;99.90;;;;;;5003280;28;20030;-61
2022/10/08 08:16:02;;;;;;;6.10;1.50;;;13.80;99.90;;;;;;4997001;28;20525;-61
2022/10/08 08:18:31;;;;;;;11.70;1.73;;;13.90;99.90;;;;;;5013112;28;20057;-64
2022/10/08 08:20:58;;;;;;;7.60;1.40;;;14.00;99.90;;;;;;5014055;28;20030;-61
2022/10/08 08:23:29;;;;;;;9.35;2.22;;;14.10;99.90;;;;;;4989543;28;20060;-62
2022/10/08 08:25:54;;;;;;;13.25;1.77;;;14.00;99.90;;;;;;5011699;28;20485;-63
2022/10/08 08:28:22;;;;;;;6.90;2.00;;;14.10;99.90;;;;;;4985282;28;20070;-64
2022/10/08 08:30:48;;;;;;;10.07;1.63;;;14.20;99.90;;;;;;5012876;28;20038;-61
2022/10/08 08:33:13;;;;;;;9.73;1.50;;;13.90;99.90;;;;;;4997769;28;20404;-62
2022/10/08 08:35:39;;;;;;;7.40;1.42;;;13.90;99.90;;;;;;5005344;28;20167;-63
2022/10/08 08:38:05;;;;;;;7.22;1.27;;;13.70;99.90;;;;;;5003964;28;20052;-62
2022/10/08 08:40:30;;;;;;;6.75;1.10;;;13.60;99.90;;;;;;5007934;28;20041;-62
2022/10/08 08:42:56;;;;;;;7.63;1.42;;;13.80;99.90;;;;;;5011061;28;20627;-64
2022/10/08 08:45:26;;;;;;;8.90;1.52;;;13.80;99.90;;;;;;4991310;28;20056;-63
2022/10/08 08:48:10;;;;;;;8.38;1.25;;;14.00;99.90;;;;;;4986885;28;20085;-63
2022/10/08 08:50:40;;;;;;;7.00;1.10;;;14.10;99.90;;;;;;4997276;28;20120;-62
2022/10/08 08:53:09;;;;;;;6.07;1.15;;;14.20;99.90;;;;;;5005611;28;20058;-62
2022/10/08 08:55:44;;;;;;;5.68;1.42;;;14.30;99.90;;;;;;4975464;28;20046;-62
2022/10/08 08:58:42;;;;;;;8.60;1.30;;;14.30;99.90;;;;;;4987423;28;20130;-64
2022/10/08 09:01:07;;;;;;;9.85;2.50;;;14.40;99.90;;;;;;5012706;28;20042;-62
2022/10/08 09:03:40;;;;;;;11.75;2.03;;;14.60;99.90;;;;;;4986656;28;20038;-62
2022/10/08 09:06:13;;;;;;;7.28;1.10;;;14.70;99.90;;;;;;4999044;28;20043;-62
2022/10/08 09:08:54;;;;;;;5.67;1.30;;;14.60;99.90;;;;;;5012889;28;20404;-63
2022/10/08 09:11:21;;;;;;;10.10;2.08;;;14.70;99.90;;;;;;5013420;28;20045;-63
2022/10/08 09:14:04;;;;;;;15.30;1.60;;;14.80;99.90;;;;;;4988162;28;20232;-63
2022/10/08 09:16:32;;;;;;;7.40;1.20;;;14.90;99.90;;;;;;4996547;28;20489;-64
2022/10/08 09:18:58;;;;;;;10.45;1.63;;;14.90;99.90;;;;;;4993274;28;20448;-63
2022/10/08 09:21:27;;;;;;;9.20;1.30;;;15.00;99.90;;;;;;5006970;28;20042;-63
2022/10/08 09:23:53;;;;;;;6.10;1.35;;;15.00;99.90;;;;;;5010534;28;20030;-63
2022/10/08 09:26:34;;;;;;;8.57;1.98;;;15.10;99.90;;;;;;5005329;28;20053;-63
2022/10/08 09:29:01;;;;;;;8.32;1.48;;;15.10;99.90;;;;;;4990549;28;20257;-63
2022/10/08 09:31:39;;;;;;;8.07;2.03;;;15.10;99.90;;;;;;4989010;28;20043;-64
2022/10/08 09:34:17;;;;;;;9.73;1.67;;;15.10;99.90;;;;;;4993766;28;20100;-63
2022/10/08 09:37:04;;;;;;;8.20;1.85;;;15.10;99.90;;;;;;4985375;28;20198;-62
2022/10/08 09:39:36;;;;;;;10.35;1.60;;;15.30;99.90;;;;;;5007363;28;20049;-64
2022/10/08 09:42:10;;;;;;;8.30;1.38;;;15.40;99.90;;;;;;5008191;28;20516;-64
2022/10/08 09:44:42;;;;;;;9.75;1.98;;;15.50;99.90;;;;;;4981958;28;20067;-63
2022/10/08 09:47:14;;;;;;;5.53;1.83;;;15.40;99.90;;;;;;4994095;28;20077;-64
2022/10/08 09:49:40;;;;;;;10.40;2.17;;;15.40;99.90;;;;;;4992863;28;20048;-64
2022/10/08 09:52:24;;;;;;;7.30;1.60;;;15.30;99.70;;;;;;5001197;28;20480;-64
2022/10/08 09:55:21;;;;;;;5.65;1.48;;;15.10;99.50;;;;;;5005456;28;20481;-63
2022/10/08 09:57:53;;;;;;;7.43;1.30;;;15.20;99.80;;;;;;4981833;28;20058;-63
2022/10/08 10:00:36;;;;;;;9.35;1.50;;;15.40;99.80;;;;;;5007353;28;20099;-63
2022/10/08 10:03:05;;;;;;;6.55;1.42;;;15.60;99.90;;;;;;4998028;28;20042;-63
2022/10/08 10:05:34;;;;;;;6.57;1.50;;;15.70;99.50;;;;;;5005117;28;20080;-63
2022/10/08 10:08:01;;;;;;;10.52;1.83;;;15.80;99.00;;;;;;5002355;28;20045;-65
2022/10/08 10:10:47;;;;;;;5.03;1.55;;;15.80;98.90;;;;;;4987513;28;20045;-63
2022/10/08 10:13:31;;;;;;;8.48;1.60;;;15.80;99.50;;;;;;5009407;28;20133;-64
2022/10/08 10:16:05;;;;;;;11.32;2.25;;;15.70;98.70;;;;;;4992822;28;20042;-64
2022/10/08 10:18:44;;;;;;;9.63;1.65;;;15.70;99.00;;;;;;5010457;28;20113;-65
2022/10/08 10:21:16;;;;;;;8.95;1.60;;;15.90;98.40;;;;;;5016552;28;20049;-64
2022/10/08 10:23:50;;;;;;;16.98;2.17;;;15.80;97.30;;;;;;5003762;28;20124;-63
2022/10/08 10:26:21;;;;;;;7.00;1.70;;;16.00;98.40;;;;;;4999515;28;20152;-63
2022/10/08 10:28:52;;;;;;;10.68;2.15;;;16.30;98.60;;;;;;5013701;28;20076;-62
2022/10/08 10:31:30;;;;;;;7.00;1.92;;;16.40;98.00;;;;;;5018702;28;20034;-64
2022/10/08 10:34:20;;;;;;;7.47;1.77;;;16.40;98.30;;;;;;5000725;28;20042;-65
2022/10/08 10:36:51;;;;;;;9.77;1.40;;;16.30;97.20;;;;;;4998448;28;20034;-65
2022/10/08 10:39:45;;;;;;;8.23;1.50;;;15.80;97.70;;;;;;5016154;28;20412;-63
2022/10/08 10:42:34;;;;;;;10.18;1.75;;;15.60;98.20;;;;;;5005660;28;20037;-65
2022/10/08 10:45:13;;;;;;;8.85;1.65;;;15.60;98.40;;;;;;5015879;28;20068;-63
2022/10/08 10:47:39;;;;;;;8.70;1.70;;;15.50;98.60;;;;;;4991501;28;20440;-64
2022/10/08 10:50:11;;;;;;;8.88;1.83;;;15.50;99.10;;;;;;5014989;28;20049;-64
2022/10/08 10:53:08;;;;;;;10.13;1.60;;;15.30;97.90;;;;;;4986143;28;20038;-65
2022/10/08 10:55:39;;;;;;;7.72;1.65;;;15.20;98.30;;;;;;5007455;28;20074;-64
2022/10/08 10:58:18;;;;;;;8.20;1.45;;;15.20;98.60;;;;;;5024909;28;20408;-63
2022/10/08 11:00:59;;;;;;;11.73;2.10;;;15.10;98.60;;;;;;4988379;28;20060;-63
2022/10/08 11:03:47;;;;;;;7.82;1.38;;;15.00;98.90;;;;;;5004107;28;20422;-64
2022/10/08 11:06:34;;;;;;;10.57;2.00;;;15.20;99.10;;;;;;4987003;28;20061;-64
2022/10/08 11:09:15;;;;;;;12.52;2.28;;;15.20;99.10;;;;;;4986673;28;20049;-65
2022/10/08 11:11:43;;;;;;;12.52;1.92;;;15.30;99.30;;;;;;5006014;23;20053;-82
2022/10/08 11:14:28;;;;;;;11.18;1.70;;;15.70;99.20;;;;;;4995526;28;20062;-82
2022/10/08 11:16:59;;;;;;;8.48;1.65;;;16.10;99.10;;;;;;4980737;28;20121;-82
2022/10/08 11:19:42;;;;;;;15.73;3.13;;;16.40;99.00;;;;;;5025283;28;20042;-82
2022/10/08 11:22:19;;;;;;;6.93;1.65;;;16.60;98.60;;;;;;4990968;28;20088;-82
2022/10/08 11:25:01;;;;;;;7.57;1.42;;;16.60;98.60;;;;;;4987877;28;20046;-82
2022/10/08 11:27:51;;;;;;;9.05;1.40;;;16.30;98.20;;;;;;5005300;28;20410;-82
2022/10/08 11:30:23;;;;;;;8.57;1.48;;;16.10;98.30;;;;;;4997264;28;20142;-82
2022/10/08 11:32:52;;;;;;;13.23;1.95;;;16.00;98.60;;;;;;4995818;28;20045;-82
2022/10/08 11:35:22;;;;;;;5.30;1.50;;;16.10;98.80;;;;;;5005553;28;20413;-81
2022/10/08 11:37:57;;;;;;;13.00;1.90;;;16.00;97.50;;;;;;5006899;28;20050;-82
2022/10/08 11:40:26;;;;;;;8.45;1.90;;;16.30;98.30;;;;;;5002473;28;20191;-82
2022/10/08 11:43:47;;;;;;;11.18;1.80;;;16.30;97.20;;;;;;4991719;28;20149;-81
2022/10/08 11:46:27;;;;;;;7.85;1.98;;;16.50;97.80;;;;;;4978921;28;20054;-82
2022/10/08 11:48:55;;;;;;;9.27;1.48;;;16.50;97.10;;;;;;5005422;28;20042;-82
2022/10/08 11:51:21;;;;;;;7.07;1.40;;;16.60;96.90;;;;;;4993599;28;20030;-82
2022/10/08 11:54:01;;;;;;;7.80;1.60;;;16.80;97.00;;;;;;4988399;28;20577;-81
2022/10/08 11:56:28;;;;;;;9.25;1.67;;;16.80;97.30;;;;;;5002007;28;20042;-82
2022/10/08 11:58:56;;;;;;;8.70;1.80;;;17.00;97.20;;;;;;5000445;28;20053;-82
2022/10/08 12:01:22;;;;;;;7.63;1.85;;;16.80;97.20;;;;;;4999942;28;20053;-82
2022/10/08 12:04:17;;;;;;;8.25;1.27;;;16.40;96.50;;;;;;4993536;28;20046;-82
2022/10/08 12:06:44;;;;;;;;;;;16.40;97.50;;;;;;5019142;28;20038;-81
2022/10/08 12:09:23;;;;;;;8.52;1.77;;;16.60;97.50;;;;;;4993136;28;19950;-81
2022/10/08 12:11:53;;;;;;;10.77;1.77;;;16.70;97.40;;;;;;5005911;28;20121;-81
2022/10/08 12:14:18;;;;;;;8.38;1.98;;;16.90;97.40;;;;;;4993453;28;20076;-81
2022/10/08 12:16:47;;;;;;;10.68;1.60;;;17.20;97.20;;;;;;5020944;28;20035;-80
2022/10/08 12:19:42;;;;;;;9.70;2.05;;;17.20;96.80;;;;;;5004802;28;20038;-81
2022/10/08 12:22:13;;;;;;;7.85;1.70;;;17.10;96.90;;;;;;4998704;28;20409;-80
2022/10/08 12:24:39;;;;;;;5.47;1.27;;;16.50;97.00;;;;;;5008994;28;20034;-81
2022/10/08 12:27:17;;;;;;;5.47;1.27;;;15.80;97.30;;;;;;5019641;28;20058;-81
2022/10/08 12:30:04;;;;;;;6.72;1.08;;;15.30;97.20;;;;;;4983767;28;20037;-81
2022/10/08 12:32:52;;;;;;;2.95;1.00;;;15.00;97.90;;;;;;5002327;28;20053;-81
2022/10/08 12:35:36;;;;;;;4.53;0.95;;;14.80;99.20;;;;;;5001656;28;20042;-81
2022/10/08 12:38:12;;;;;;;5.30;1.02;;;14.50;99.90;;;;;;5017050;28;20426;-81
2022/10/08 12:41:09;;;;;;;6.35;0.90;;;14.40;99.90;;;;;;4988468;28;20495;-81
2022/10/08 12:43:53;;;;;;;5.47;1.30;;;14.40;99.90;;;;;;5008647;28;20038;-81
2022/10/08 12:46:46;;;;;;;9.25;1.27;;;14.30;99.90;;;;;;5009159;28;20125;-82
2022/10/08 12:49:15;;;;;;;6.00;1.30;;;14.20;99.90;;;;;;4985453;28;20108;-83
2022/10/08 12:51:49;;;;;;;4.03;1.10;;;14.30;99.90;;;;;;4991430;28;20300;-82
2022/10/08 12:54:34;;;;;;;2.97;1.00;;;14.30;99.90;;;;;;5004428;28;20102;-83
2022/10/08 12:57:00;;;;;;;;;;;14.10;99.90;;;;;;4976278;28;20076;-83
2022/10/08 12:59:32;;;;;;;6.75;1.63;;;14.10;99.90;;;;;;4973124;28;20008;-82
2022/10/08 13:02:00;;;;;;;6.10;1.23;;;14.40;99.90;;;;;;4996571;28;20094;-83
2022/10/08 13:04:31;;;;;;;8.27;1.65;;;14.90;99.90;;;;;;4990255;28;20046;-83
2022/10/08 13:06:57;;;;;;;7.68;1.73;;;15.40;99.90;;;;;;4991345;28;20048;-83
2022/10/08 13:09:32;;;;;;;7.80;1.77;;;15.70;99.90;;;;;;4993984;28;20050;-83